Time;durP1;ratioP1;P1;durP2;ratioP2;P2;SDS_P1;SDS_P2;PMS_P1;PMS_P2;Temp;Humidity;BMP_temperature;BMP_pressure;BME280_temperature;BME280_humidity;BME280_pressure;Samples;Min_cycle;Max_cycle;Signal;HPM_P1;HPM_P2
2022/08/18 00:00:42;;;;;;;6.60;5.57;;;23.40;99.90;;;;;;5048513;28;20036;-44
2022/08/18 00:03:10;;;;;;;6.82;5.78;;;23.00;99.90;;;;;;5104908;28;20498;-45
2022/08/18 00:05:36;;;;;;;8.38;5.55;;;22.60;99.90;;;;;;5101408;28;20078;-44
2022/08/18 00:08:03;;;;;;;7.38;6.22;;;22.50;99.90;;;;;;5105450;28;20089;-43
2022/08/18 00:10:29;;;;;;;7.20;5.88;;;22.20;99.90;;;;;;5073156;28;20055;-44
2022/08/18 00:12:55;;;;;;;7.47;5.88;;;22.00;99.90;;;;;;5104528;28;20031;-46
2022/08/18 00:15:20;;;;;;;6.15;5.40;;;21.90;99.90;;;;;;5110296;28;20045;-44
2022/08/18 00:17:46;;;;;;;7.28;5.68;;;21.90;99.90;;;;;;5083453;28;20040;-45
2022/08/18 00:20:16;;;;;;;7.38;5.90;;;21.80;99.90;;;;;;5103438;28;20030;-45
2022/08/18 00:22:42;;;;;;;7.95;5.80;;;;;;;;;;5104445;28;20073;-44
2022/08/18 00:25:09;;;;;;;8.98;5.63;;;21.70;99.90;;;;;;5104355;28;20122;-45
2022/08/18 00:27:37;;;;;;;7.60;5.80;;;21.90;99.90;;;;;;5102068;28;20114;-44
2022/08/18 00:30:06;;;;;;;7.68;6.20;;;22.00;99.90;;;;;;5112274;28;20115;-43
2022/08/18 00:32:38;;;;;;;8.80;5.38;;;22.10;99.90;;;;;;5103277;28;20024;-44
2022/08/18 00:35:07;;;;;;;7.80;5.55;;;;;;;;;;5084502;28;20048;-45
2022/08/18 00:37:33;;;;;;;7.55;5.35;;;22.40;99.90;;;;;;5068810;28;20028;-44
2022/08/18 00:39:59;;;;;;;9.95;5.55;;;22.40;99.90;;;;;;5095452;28;20031;-45
2022/08/18 00:42:27;;;;;;;7.57;5.45;;;22.50;99.90;;;;;;5103660;28;20019;-44
2022/08/18 00:44:55;;;;;;;7.43;6.15;;;22.70;99.90;;;;;;5086487;28;20105;-46
2022/08/18 00:47:20;;;;;;;6.78;5.55;;;22.80;99.90;;;;;;5049486;28;20094;-46
2022/08/18 00:49:50;;;;;;;6.72;5.45;;;22.70;99.90;;;;;;5106605;28;20513;-46
2022/08/18 00:52:18;;;;;;;7.85;6.03;;;22.70;99.90;;;;;;5104398;28;20040;-45
2022/08/18 00:54:45;;;;;;;7.55;6.82;;;22.80;99.90;;;;;;5102480;28;20482;-46
2022/08/18 00:57:13;;;;;;;9.20;5.82;;;22.80;99.90;;;;;;5102685;28;20083;-44
2022/08/18 00:59:52;;;;;;;9.48;6.10;;;22.70;99.90;;;;;;5097279;28;20140;-47
2022/08/18 01:02:24;;;;;;;9.13;6.30;;;22.40;99.90;;;;;;5104547;28;20077;-46
2022/08/18 01:05:19;;;;;;;;;;;22.20;99.90;;;;;;5104910;28;20546;-45
2022/08/18 01:07:47;;;;;;;9.52;6.63;;;22.10;99.90;;;;;;5030218;28;20370;-45
2022/08/18 01:10:16;;;;;;;8.23;6.47;;;22.10;99.90;;;;;;5029673;28;20041;-45
2022/08/18 01:12:43;;;;;;;6.65;6.05;;;22.10;99.90;;;;;;4996765;28;20045;-45
2022/08/18 01:15:10;;;;;;;8.23;6.35;;;22.00;99.90;;;;;;5013695;28;20605;-46
2022/08/18 01:23:18;;;;;;;8.07;6.32;;;22.40;99.90;;;;;;5028096;28;20072;-46
2022/08/18 01:25:59;;;;;;;7.55;6.63;;;22.40;99.90;;;;;;5029565;28;20132;-45
2022/08/18 01:28:26;;;;;;;8.68;6.63;;;22.20;99.90;;;;;;5029175;28;20033;-44
2022/08/18 01:30:57;;;;;;;7.35;6.65;;;22.10;99.90;;;;;;5029564;28;20148;-45
2022/08/18 01:33:25;;;;;;;10.00;7.13;;;22.20;99.90;;;;;;5029150;28;20036;-45
2022/08/18 01:35:52;;;;;;;8.30;7.00;;;22.10;99.90;;;;;;5029222;28;20473;-44
2022/08/18 01:38:21;;;;;;;8.80;7.07;;;22.20;99.90;;;;;;5029294;28;20037;-46
2022/08/18 01:40:47;;;;;;;8.32;6.97;;;22.40;99.90;;;;;;5029707;28;20509;-47
2022/08/18 01:43:13;;;;;;;10.00;7.20;;;22.30;99.90;;;;;;5037703;28;20025;-47
2022/08/18 01:45:40;;;;;;;8.32;6.80;;;22.40;99.90;;;;;;5112067;28;20038;-46
2022/08/18 01:48:07;;;;;;;7.40;6.47;;;22.30;99.90;;;;;;5059615;28;20039;-45
2022/08/18 01:50:34;;;;;;;8.68;6.47;;;22.50;99.90;;;;;;5105955;28;20039;-45
2022/08/18 01:53:04;;;;;;;8.50;6.93;;;22.70;99.90;;;;;;5101743;28;20066;-44
2022/08/18 01:55:35;;;;;;;9.25;7.00;;;22.70;99.90;;;;;;5100974;28;20483;-46
2022/08/18 01:58:01;;;;;;;7.78;5.93;;;22.80;99.90;;;;;;5102305;28;20100;-46
2022/08/18 02:00:28;;;;;;;10.70;6.82;;;22.80;99.90;;;;;;5095870;28;20400;-46
2022/08/18 02:02:55;;;;;;;7.70;6.88;;;22.90;99.90;;;;;;5059157;28;20506;-46
2022/08/18 02:05:36;;;;;;;9.07;7.20;;;22.90;99.90;;;;;;5085460;28;20548;-45
2022/08/18 02:08:03;;;;;;;8.15;6.78;;;22.90;99.90;;;;;;5103619;28;20037;-46
2022/08/18 02:10:29;;;;;;;8.50;7.30;;;22.90;99.90;;;;;;5052032;28;20032;-46
2022/08/18 02:12:55;;;;;;;8.23;7.13;;;22.60;99.90;;;;;;5102254;28;20032;-46
2022/08/18 02:15:21;;;;;;;8.45;7.55;;;22.30;99.90;;;;;;5016286;28;20036;-45
2022/08/18 02:17:47;;;;;;;10.68;7.85;;;22.40;99.90;;;;;;5094772;28;20066;-45
2022/08/18 02:20:18;;;;;;;11.02;7.88;;;22.50;99.90;;;;;;5101446;28;20024;-46
2022/08/18 02:22:44;;;;;;;10.50;7.70;;;22.60;99.90;;;;;;5102339;28;20020;-44
2022/08/18 02:25:10;;;;;;;8.57;7.65;;;22.70;99.90;;;;;;5067047;28;20383;-45
2022/08/18 02:27:36;;;;;;;8.68;7.78;;;22.20;99.90;;;;;;5103326;28;20483;-45
2022/08/18 02:30:06;;;;;;;9.05;8.23;;;22.10;99.90;;;;;;5103308;28;20035;-44
2022/08/18 02:32:32;;;;;;;9.60;8.07;;;22.30;99.90;;;;;;5041229;28;20036;-45
2022/08/18 02:34:58;;;;;;;9.45;7.25;;;22.40;99.90;;;;;;5103552;28;20032;-46
2022/08/18 02:37:23;;;;;;;10.93;7.85;;;22.50;99.90;;;;;;5107048;28;20039;-45
2022/08/18 02:39:49;;;;;;;9.48;7.90;;;22.50;99.90;;;;;;5105476;28;20024;-46
2022/08/18 02:42:15;;;;;;;9.13;8.30;;;22.10;99.90;;;;;;5105350;28;20074;-45
2022/08/18 02:44:41;;;;;;;9.82;8.00;;;22.00;99.90;;;;;;5104888;28;20533;-45
2022/08/18 02:47:07;;;;;;;8.43;7.63;;;22.30;99.90;;;;;;5025882;28;20571;-46
2022/08/18 02:49:35;;;;;;;9.82;8.07;;;22.30;99.90;;;;;;5068608;28;20043;-45
2022/08/18 02:52:02;;;;;;;8.73;7.75;;;22.30;99.90;;;;;;5072255;28;20052;-46
2022/08/18 02:54:28;;;;;;;10.32;8.48;;;22.20;99.90;;;;;;5037894;28;20037;-46
2022/08/18 02:56:55;;;;;;;12.35;8.98;;;22.30;99.90;;;;;;5063496;28;20474;-45
2022/08/18 02:59:23;;;;;;;9.45;8.50;;;22.50;99.90;;;;;;5072778;28;20511;-44
2022/08/18 03:01:51;;;;;;;8.98;8.00;;;22.70;99.90;;;;;;5072005;28;20056;-47
2022/08/18 03:04:26;;;;;;;10.13;8.30;;;22.80;99.90;;;;;;5072050;28;20037;-44
2022/08/18 03:06:55;;;;;;;13.02;8.45;;;22.80;99.90;;;;;;5051743;28;20045;-45
2022/08/18 03:09:21;;;;;;;7.65;6.95;;;22.80;99.90;;;;;;5051961;28;20041;-46
2022/08/18 03:11:47;;;;;;;7.75;6.90;;;22.60;99.90;;;;;;5051903;28;20125;-45
2022/08/18 03:14:15;;;;;;;9.57;6.78;;;22.60;99.90;;;;;;5051728;28;20161;-44
2022/08/18 03:16:43;;;;;;;9.57;7.25;;;22.60;99.90;;;;;;5052146;28;20045;-46
2022/08/18 03:19:09;;;;;;;14.20;7.45;;;22.50;99.90;;;;;;5070423;28;20502;-44
2022/08/18 03:21:36;;;;;;;11.25;7.38;;;22.60;99.90;;;;;;5071522;28;20175;-44
2022/08/18 03:24:04;;;;;;;8.80;7.30;;;22.60;99.90;;;;;;5072159;28;20039;-46
2022/08/18 03:26:31;;;;;;;11.52;7.95;;;22.50;99.90;;;;;;5054695;28;20538;-45
2022/08/18 03:28:59;;;;;;;16.83;8.63;;;22.50;99.90;;;;;;5071392;28;20554;-46
2022/08/18 03:31:27;;;;;;;13.88;8.63;;;22.50;99.90;;;;;;5038995;28;20068;-46
2022/08/18 03:33:54;;;;;;;10.27;8.30;;;22.40;99.90;;;;;;5071363;28;20131;-46
2022/08/18 03:36:24;;;;;;;14.13;9.10;;;22.40;99.90;;;;;;5071308;28;20044;-45
2022/08/18 03:38:51;;;;;;;12.02;8.15;;;22.40;99.90;;;;;;5070431;28;20479;-46
2022/08/18 03:41:24;;;;;;;13.38;8.38;;;22.40;99.90;;;;;;5106613;28;20030;-46
2022/08/18 03:43:51;;;;;;;13.35;8.05;;;22.50;99.90;;;;;;5105684;28;20125;-44
2022/08/18 03:46:20;;;;;;;10.38;9.30;;;22.40;99.90;;;;;;5104596;28;20054;-44
2022/08/18 03:48:48;;;;;;;26.20;9.02;;;22.40;99.90;;;;;;5103687;28;20076;-46
2022/08/18 03:51:17;;;;;;;19.33;9.82;;;22.50;99.90;;;;;;5097326;28;20028;-45
2022/08/18 03:53:44;;;;;;;16.00;8.80;;;22.50;99.90;;;;;;5060951;28;20149;-44
2022/08/18 03:56:16;;;;;;;15.55;9.95;;;22.60;99.90;;;;;;5104948;28;20036;-46
2022/08/18 03:58:44;;;;;;;15.07;8.50;;;22.70;99.90;;;;;;5104998;28;20085;-45
2022/08/18 04:01:15;;;;;;;11.73;8.30;;;22.70;99.90;;;;;;5105632;28;20040;-46
2022/08/18 04:03:42;;;;;;;17.08;9.50;;;22.70;99.90;;;;;;5099496;28;20062;-46
2022/08/18 04:06:15;;;;;;;10.25;8.50;;;22.70;99.90;;;;;;5110797;28;20073;-44
2022/08/18 04:08:41;;;;;;;9.32;8.18;;;22.60;99.90;;;;;;5069510;28;20036;-45
2022/08/18 04:11:06;;;;;;;10.27;8.32;;;22.30;99.90;;;;;;5107692;28;20035;-44
2022/08/18 04:13:35;;;;;;;8.90;8.00;;;21.90;99.90;;;;;;5106411;28;20099;-45
2022/08/18 04:16:00;;;;;;;9.57;7.80;;;21.90;99.90;;;;;;5104778;28;20048;-45
2022/08/18 04:18:27;;;;;;;8.88;7.07;;;21.60;99.90;;;;;;5111979;28;20042;-44
2022/08/18 04:20:53;;;;;;;9.25;8.30;;;21.90;99.90;;;;;;5110793;28;20040;-45
2022/08/18 04:23:19;;;;;;;9.35;7.97;;;21.90;99.90;;;;;;5088139;28;20040;-45
2022/08/18 04:25:53;;;;;;;10.13;7.82;;;21.90;99.90;;;;;;5104346;28;20035;-45
2022/08/18 04:28:19;;;;;;;9.15;8.13;;;21.90;99.90;;;;;;5105378;28;20111;-44
2022/08/18 04:30:45;;;;;;;9.48;7.50;;;21.90;99.90;;;;;;5049592;28;20126;-45
2022/08/18 04:33:11;;;;;;;10.30;8.68;;;22.10;99.90;;;;;;5102380;28;20077;-46
2022/08/18 04:35:36;;;;;;;9.40;7.88;;;22.00;99.90;;;;;;5107713;28;20063;-45
2022/08/18 04:38:02;;;;;;;7.75;6.97;;;21.60;99.90;;;;;;5105229;28;20031;-47
2022/08/18 04:40:28;;;;;;;9.05;7.75;;;21.60;99.90;;;;;;5049586;28;20547;-46
2022/08/18 04:42:54;;;;;;;11.88;9.05;;;21.40;99.90;;;;;;5053162;28;20047;-45
2022/08/18 04:45:20;;;;;;;11.73;8.30;;;21.60;99.90;;;;;;5101597;28;20047;-46
2022/08/18 04:47:45;;;;;;;8.98;7.90;;;21.70;99.90;;;;;;5102798;28;20016;-47
2022/08/18 04:50:11;;;;;;;9.20;7.20;;;22.00;99.90;;;;;;5109510;28;20035;-44
2022/08/18 04:55:21;;;;;;;14.27;7.90;;;22.40;99.90;;;;;;5066069;28;20135;-46
2022/08/18 04:57:47;;;;;;;11.13;8.60;;;22.60;99.90;;;;;;5041562;28;20135;-46
2022/08/18 05:00:13;;;;;;;16.02;8.57;;;22.80;99.90;;;;;;5061838;28;20033;-44
2022/08/18 05:02:40;;;;;;;9.38;7.55;;;23.00;99.90;;;;;;5027100;28;20507;-46
2022/08/18 05:05:06;;;;;;;8.43;6.95;;;23.10;99.90;;;;;;5056893;28;20044;-47
2022/08/18 05:07:32;;;;;;;9.25;7.68;;;23.20;99.90;;;;;;5023785;28;20032;-46
2022/08/18 05:09:58;;;;;;;11.23;7.78;;;23.30;99.90;;;;;;5056331;28;20094;-46
2022/08/18 05:12:24;;;;;;;12.50;9.02;;;23.40;99.90;;;;;;5055790;28;20064;-46
2022/08/18 05:14:52;;;;;;;8.85;7.95;;;23.60;99.90;;;;;;5058340;28;20038;-44
2022/08/18 05:17:18;;;;;;;8.13;7.28;;;23.70;99.90;;;;;;5042421;28;20114;-44
2022/08/18 05:19:44;;;;;;;11.88;8.32;;;23.80;99.90;;;;;;5064784;28;20388;-45
2022/08/18 05:22:16;;;;;;;8.23;7.15;;;23.90;99.90;;;;;;5057684;28;20033;-46
2022/08/18 05:24:42;;;;;;;43.53;16.48;;;24.00;99.90;;;;;;5059868;28;20558;-45
2022/08/18 05:27:08;;;;;;;10.27;9.27;;;24.00;99.90;;;;;;5062549;28;20033;-44
2022/08/18 05:29:37;;;;;;;13.60;9.48;;;24.20;99.90;;;;;;5071930;28;20032;-43
2022/08/18 05:32:06;;;;;;;12.00;9.80;;;24.20;99.90;;;;;;5102489;28;20100;-44
2022/08/18 05:34:33;;;;;;;12.40;9.55;;;24.30;99.90;;;;;;5102664;28;20040;-44
2022/08/18 05:37:26;;;;;;;14.98;9.68;;;24.50;99.90;;;;;;5103445;28;20110;-44
2022/08/18 05:40:05;;;;;;;12.05;10.18;;;24.50;99.90;;;;;;5102677;28;20531;-45
2022/08/18 05:42:36;;;;;;;12.98;8.98;;;24.60;99.90;;;;;;5106302;28;20036;-45
2022/08/18 05:45:07;;;;;;;10.00;8.57;;;24.70;99.90;;;;;;5098402;28;20063;-44
2022/08/18 05:47:33;;;;;;;11.30;8.90;;;24.70;99.90;;;;;;5051743;28;20487;-44
2022/08/18 05:56:45;;;;;;;8.82;7.18;;;24.90;99.90;;;;;;5106512;28;20039;-43
2022/08/18 05:59:29;;;;;;;8.85;7.65;;;25.30;99.90;;;;;;5105009;28;20084;-45
2022/08/18 06:05:12;;;;;;;15.45;9.07;;;25.70;99.90;;;;;;5107660;28;20034;-43
2022/08/18 06:10:59;;;;;;;14.15;8.82;;;26.00;99.90;;;;;;5055680;28;20035;-44
2022/08/18 06:17:04;;;;;;;16.70;8.27;;;;;;;;;;5067906;28;20130;-45
2022/08/18 06:22:42;;;;;;;10.05;7.72;;;;;;;;;;5027479;28;20034;-45
2022/08/18 06:28:19;;;;;;;11.25;8.43;;;;;;;;;;5030096;28;20496;-43
2022/08/18 06:30:54;;;;;;;11.93;9.07;;;;;;;;;;5021318;28;20038;-43
2022/08/18 06:33:31;;;;;;;15.27;9.10;;;27.20;99.90;;;;;;5026821;28;20050;-45
2022/08/18 06:36:01;;;;;;;14.07;9.05;;;;;;;;;;5024270;28;20046;-43
2022/08/18 06:38:56;;;;;;;13.07;8.05;;;27.70;99.90;;;;;;5036653;28;20053;-45
2022/08/18 06:41:31;;;;;;;12.02;8.48;;;;;;;;;;5043580;28;20110;-46
2022/08/18 06:44:18;;;;;;;13.50;8.85;;;27.80;99.90;;;;;;5053188;28;20403;-46
2022/08/18 06:46:46;;;;;;;15.80;9.07;;;;;;;;;;5068856;28;20041;-43
2022/08/18 06:49:31;;;;;;;12.27;7.85;;;28.20;99.90;;;;;;5068386;28;20091;-45
2022/08/18 06:51:56;;;;;;;11.63;7.50;;;27.90;99.90;;;;;;5068424;28;20055;-43
2022/08/18 06:54:23;;;;;;;10.25;7.57;;;;;;;;;;5064763;28;20482;-45
2022/08/18 06:56:51;;;;;;;9.32;7.22;;;28.60;99.90;;;;;;5105524;28;20031;-44
2022/08/18 06:59:19;;;;;;;10.20;6.55;;;28.60;99.90;;;;;;5101314;28;20032;-43
2022/08/18 07:01:50;;;;;;;12.05;6.40;;;29.00;99.90;;;;;;5048159;28;20033;-44
2022/08/18 07:05:11;;;;;;;11.70;5.95;;;29.10;99.90;;;;;;5048143;28;20064;-44
2022/08/18 07:07:39;;;;;;;11.30;6.72;;;;;;;;;;4930887;29;20035;-45
2022/08/18 07:10:24;;;;;;;11.95;5.97;;;29.30;99.90;;;;;;4930397;29;20123;-45
2022/08/18 07:12:51;;;;;;;11.60;6.95;;;;;;;;;;4928530;29;20036;-45
2022/08/18 07:15:23;;;;;;;11.63;7.05;;;29.60;99.90;;;;;;4929494;29;20698;-45
2022/08/18 07:18:01;;;;;;;7.93;6.03;;;29.70;99.90;;;;;;4931395;29;20417;-45
2022/08/18 07:20:29;;;;;;;8.45;6.47;;;29.70;99.90;;;;;;4931126;29;20596;-44
2022/08/18 07:22:59;;;;;;;11.20;6.38;;;;;;;;;;4931301;29;20071;-45
2022/08/18 07:25:47;;;;;;;12.90;7.07;;;30.40;99.90;;;;;;4934407;29;20058;-45
2022/08/18 07:28:30;;;;;;;9.98;7.18;;;30.40;99.90;;;;;;4934955;29;20032;-44
2022/08/18 07:31:11;;;;;;;10.40;6.93;;;30.50;99.90;;;;;;4934300;29;20103;-44
2022/08/18 07:33:38;;;;;;;10.50;6.72;;;;;;;;;;4934293;29;20131;-43
2022/08/18 07:36:05;;;;;;;8.20;6.60;;;;;;;;;;4934208;29;20137;-45
2022/08/18 07:38:50;;;;;;;11.38;6.35;;;31.00;99.90;;;;;;4938834;29;20138;-45
2022/08/18 07:41:25;;;;;;;11.65;6.70;;;31.10;99.90;;;;;;4963930;28;20050;-43
2022/08/18 07:43:58;;;;;;;8.05;5.20;;;;;;;;;;5031178;28;20062;-46
2022/08/18 07:46:48;;;;;;;18.27;10.05;;;31.50;99.00;;;;;;5125096;27;20110;-43
2022/08/18 07:49:17;;;;;;;15.45;6.47;;;;;;;;;;5123830;27;20027;-44
2022/08/18 07:51:53;;;;;;;6.60;5.57;;;;;;;;;;5126968;27;20085;-45
2022/08/18 07:54:19;;;;;;;11.68;7.38;;;;;;;;;;5123489;27;20487;-45
2022/08/18 07:56:45;;;;;;;7.72;5.00;;;;;;;;;;5093186;28;20083;-45
2022/08/18 07:59:30;;;;;;;9.30;5.50;;;;;;;;;;5124669;27;20122;-44
2022/08/18 08:02:06;;;;;;;5.70;4.80;;;;;;;;;;5125357;27;20042;-45
2022/08/18 08:05:06;;;;;;;8.20;5.35;;;32.50;99.90;;;;;;5123555;27;20442;-45
2022/08/18 08:07:40;;;;;;;6.60;5.32;;;;;;;;;;5122436;27;20038;-45
2022/08/18 08:10:18;;;;;;;7.38;5.50;;;;;;;;;;5124847;27;20023;-45
2022/08/18 08:12:53;;;;;;;8.77;5.35;;;32.80;94.90;;;;;;5123138;27;20031;-46
2022/08/18 08:15:35;;;;;;;8.88;4.72;;;32.90;95.20;;;;;;5120829;27;20050;-44
2022/08/18 08:18:13;;;;;;;5.50;4.75;;;33.20;94.60;;;;;;5123848;27;20063;-44
2022/08/18 08:20:45;;;;;;;6.15;4.43;;;;;;;;;;5120655;27;20031;-44
2022/08/18 08:23:28;;;;;;;10.55;4.63;;;33.60;99.90;;;;;;5126122;27;20071;-44
2022/08/18 08:26:31;;;;;;;8.93;4.72;;;33.60;93.10;;;;;;5116992;27;20038;-46
2022/08/18 08:29:15;;;;;;;11.98;6.20;;;34.00;93.00;;;;;;5121289;27;20043;-46
2022/08/18 08:31:47;;;;;;;7.03;4.68;;;;;;;;;;5126892;27;20039;-45
2022/08/18 08:34:34;;;;;;;7.53;4.25;;;34.40;99.90;;;;;;5125262;27;20379;-46
2022/08/18 08:37:02;;;;;;;6.82;4.45;;;;;;;;;;5117908;27;20134;-47
2022/08/18 08:39:38;;;;;;;5.60;4.38;;;;;;;;;;5087459;28;20039;-45
2022/08/18 08:42:12;;;;;;;5.97;4.07;;;34.60;90.70;;;;;;5121010;27;20122;-46
2022/08/18 08:44:59;;;;;;;6.28;4.10;;;34.70;90.60;;;;;;5112295;28;20048;-46
2022/08/18 08:47:48;;;;;;;7.13;4.28;;;34.80;90.30;;;;;;5107547;28;20036;-47
2022/08/18 08:50:20;;;;;;;5.50;4.10;;;34.80;88.70;;;;;;4997626;28;20398;-46
2022/08/18 08:53:05;;;;;;;7.43;4.18;;;;;;;;;;5000878;28;20038;-46
2022/08/18 08:55:40;;;;;;;5.32;3.97;;;35.40;88.70;;;;;;4990462;28;20046;-47
2022/08/18 08:58:33;;;;;;;5.15;3.63;;;35.50;87.50;;;;;;5002130;28;20030;-45
2022/08/18 09:01:00;;;;;;;6.55;3.88;;;;;;;;;;5002259;28;20034;-47
2022/08/18 09:03:44;;;;;;;5.68;3.92;;;35.90;84.70;;;;;;4997164;28;20046;-47
2022/08/18 09:06:35;;;;;;;5.10;3.60;;;36.20;84.10;;;;;;4998729;28;20676;-45
2022/08/18 09:09:03;;;;;;;7.22;3.80;;;36.40;84.50;;;;;;5010299;28;20034;-46
2022/08/18 09:11:38;;;;;;;5.68;3.83;;;36.80;84.20;;;;;;5009908;28;20502;-46
2022/08/18 09:14:31;;;;;;;7.47;3.00;;;37.00;83.30;;;;;;5009706;28;20116;-45
2022/08/18 09:17:12;;;;;;;7.65;4.20;;;37.10;81.90;;;;;;4993391;28;20041;-44
2022/08/18 09:19:57;;;;;;;6.80;4.75;;;37.00;81.80;;;;;;5009570;28;20030;-46
2022/08/18 09:22:31;;;;;;;7.25;4.68;;;37.00;82.30;;;;;;5007048;28;20038;-45
2022/08/18 09:24:58;;;;;;;6.32;4.50;;;37.00;81.70;;;;;;5010457;28;20045;-44
2022/08/18 09:27:35;;;;;;;6.10;4.20;;;37.10;82.10;;;;;;5043062;28;20623;-45
2022/08/18 09:30:04;;;;;;;4.55;3.58;;;37.30;82.40;;;;;;5069361;28;20037;-47
2022/08/18 09:32:54;;;;;;;7.13;4.05;;;37.20;81.10;;;;;;5035749;28;20150;-46
2022/08/18 09:35:48;;;;;;;5.10;3.42;;;37.60;81.60;;;;;;5069182;28;20036;-48
2022/08/18 09:41:31;;;;;;;7.72;3.58;;;37.90;79.80;;;;;;5062066;28;20047;-47
2022/08/18 11:44:48;;;;;;;6.70;2.67;;;40.50;92.20;;;;;;5108852;28;20096;-51
2022/08/18 13:04:09;;;;;;;5.57;2.72;;;41.70;65.50;;;;;;5080055;28;20057;-52
2022/08/18 13:07:25;;;;;;;5.53;2.88;;;41.50;64.70;;;;;;5081478;28;20125;-53
2022/08/18 16:35:50;;;;;;;6.88;3.50;;;;;;;;;;5083710;28;20063;-51
2022/08/18 17:42:40;;;;;;;;;;;34.10;74.70;;;;;;5085712;28;20076;-51
2022/08/18 18:00:17;;;;;;;13.38;8.90;;;33.50;75.30;;;;;;5101954;28;20403;-50
2022/08/18 18:48:30;;;;;;;8.52;5.05;;;31.00;79.70;;;;;;5088182;28;20046;-50
2022/08/18 19:02:02;;;;;;;7.93;4.78;;;;;;;;;;5097071;28;20038;-50
2022/08/18 20:18:19;;;;;;;13.95;5.03;;;28.10;87.90;;;;;;5107600;28;20079;-48
2022/08/18 21:42:43;;;;;;;6.43;4.38;;;26.10;93.30;;;;;;5087960;28;20087;-50
2022/08/18 21:45:15;;;;;;;7.72;4.53;;;;;;;;;;5080050;28;20402;-48
2022/08/18 21:47:41;;;;;;;;;;;;;;;;;;5080419;28;20035;-49
2022/08/18 21:50:14;;;;;;;9.32;4.75;;;25.80;94.00;;;;;;5080756;28;19915;-48
2022/08/18 21:52:53;;;;;;;8.10;4.55;;;25.90;94.10;;;;;;5066061;28;20050;-50
2022/08/18 21:55:29;;;;;;;12.93;4.97;;;25.90;93.70;;;;;;5078318;28;20028;-49
2022/08/18 21:58:12;;;;;;;5.78;3.90;;;25.70;93.90;;;;;;5082918;28;20036;-48
2022/08/18 22:00:41;;;;;;;9.18;4.13;;;25.90;93.10;;;;;;5076683;28;20499;-49
2022/08/18 22:03:18;;;;;;;9.52;4.47;;;26.00;92.70;;;;;;5081265;28;20035;-48
2022/08/18 22:06:09;;;;;;;8.90;4.22;;;26.10;92.70;;;;;;5060352;28;20046;-49
2022/08/18 22:08:45;;;;;;;10.30;4.78;;;26.20;92.60;;;;;;5009794;28;20041;-49
2022/08/18 22:14:29;;;;;;;7.53;4.20;;;26.20;92.40;;;;;;5009327;28;20100;-49
2022/08/18 22:17:24;;;;;;;9.05;4.40;;;26.20;92.50;;;;;;4972477;28;20054;-48
2022/08/18 22:19:50;;;;;;;9.57;5.00;;;26.00;92.80;;;;;;4970108;28;20061;-48
2022/08/18 22:25:04;;;;;;;7.85;4.40;;;25.90;93.00;;;;;;4962472;28;20558;-49
2022/08/18 22:27:30;;;;;;;7.50;4.28;;;26.70;93.10;;;;;;4962580;28;20035;-49
2022/08/18 22:30:03;;;;;;;12.30;4.57;;;26.20;99.90;;;;;;4926758;28;20411;-48
2022/08/18 22:32:34;;;;;;;8.35;4.38;;;26.00;98.60;;;;;;4962078;28;20570;-48
2022/08/18 22:35:00;;;;;;;6.53;4.35;;;;;;;;;;4962546;28;20042;-50
2022/08/18 22:37:31;;;;;;;7.93;4.15;;;25.90;99.90;;;;;;4963787;28;20557;-50
2022/08/18 22:40:04;;;;;;;10.07;4.75;;;25.90;99.90;;;;;;4961896;28;20410;-48
2022/08/18 22:42:32;;;;;;;9.40;4.88;;;26.00;97.50;;;;;;4958913;28;20047;-47
2022/08/18 22:44:59;;;;;;;11.82;5.72;;;26.00;97.90;;;;;;4976839;28;20037;-49
2022/08/18 22:47:26;;;;;;;6.90;5.13;;;25.80;98.10;;;;;;5017593;28;20088;-49
2022/08/18 22:49:52;;;;;;;11.98;5.38;;;26.00;98.40;;;;;;5023142;28;20044;-48
2022/08/18 22:52:30;;;;;;;12.18;5.40;;;26.10;98.10;;;;;;5029619;28;20500;-47
2022/08/18 22:54:59;;;;;;;8.35;5.07;;;26.00;98.10;;;;;;5033197;28;20120;-48
2022/08/18 22:57:25;;;;;;;7.35;4.60;;;25.80;98.20;;;;;;5087966;28;20410;-48
2022/08/18 22:59:51;;;;;;;10.25;5.38;;;25.70;99.30;;;;;;5085789;28;20115;-49
2022/08/18 23:02:17;;;;;;;8.30;4.90;;;25.70;98.00;;;;;;5079683;28;20185;-49
2022/08/18 23:04:44;;;;;;;7.32;4.65;;;;;;;;;;5085986;28;20120;-47
2022/08/18 23:07:10;;;;;;;9.27;5.05;;;25.80;94.60;;;;;;5086725;28;20532;-48
2022/08/18 23:09:36;;;;;;;8.10;4.70;;;25.90;96.10;;;;;;5084084;28;20036;-48
2022/08/18 23:12:09;;;;;;;8.55;5.03;;;26.10;96.30;;;;;;5084875;28;20036;-48
2022/08/18 23:14:36;;;;;;;9.00;5.45;;;26.00;98.40;;;;;;5083573;28;20471;-49
2022/08/18 23:17:04;;;;;;;10.02;5.40;;;26.10;99.00;;;;;;5084572;28;20043;-48
2022/08/18 23:19:30;;;;;;;7.45;5.00;;;25.60;99.40;;;;;;5032453;28;20571;-47
2022/08/18 23:21:57;;;;;;;9.35;5.00;;;;;;;;;;5026179;28;20489;-49
2022/08/18 23:24:23;;;;;;;9.20;5.50;;;;;;;;;;5021696;28;20135;-48
2022/08/18 23:26:50;;;;;;;9.63;5.25;;;;;;;;;;5021934;28;20040;-49
2022/08/18 23:29:18;;;;;;;12.35;5.45;;;25.00;95.00;;;;;;5022111;28;20076;-48
2022/08/18 23:31:45;;;;;;;8.10;5.20;;;25.50;99.90;;;;;;5021077;28;20256;-49
2022/08/18 23:34:14;;;;;;;8.27;5.30;;;25.40;99.90;;;;;;5025021;28;20603;-49
2022/08/18 23:36:40;;;;;;;7.90;4.82;;;25.40;99.90;;;;;;5018102;28;20049;-49
2022/08/18 23:39:06;;;;;;;8.10;5.20;;;25.30;99.90;;;;;;4982153;28;20047;-48
2022/08/18 23:41:34;;;;;;;11.38;5.63;;;25.20;99.90;;;;;;4980480;28;20046;-47
2022/08/18 23:43:59;;;;;;;11.15;5.05;;;25.20;99.90;;;;;;4983883;28;20062;-49
2022/08/18 23:46:27;;;;;;;10.82;5.97;;;;;;;;;;4979870;28;20060;-49
2022/08/18 23:48:56;;;;;;;15.07;5.57;;;24.90;99.90;;;;;;4979994;28;20073;-48
2022/08/18 23:51:44;;;;;;;12.45;5.35;;;25.00;99.90;;;;;;4998946;28;20077;-48
2022/08/18 23:54:16;;;;;;;11.32;5.68;;;25.00;99.90;;;;;;4984846;28;20133;-49
2022/08/18 23:56:43;;;;;;;6.38;4.93;;;25.00;99.90;;;;;;5002321;28;20141;-49
2022/08/18 23:59:10;;;;;;;12.95;6.03;;;24.80;99.90;;;;;;5005407;28;20031;-48
